createdAt,value
2023-04-29T03:01:26.153Z,2.58
2023-04-29T03:03:55.063Z,2.00
2023-04-29T03:06:23.364Z,2.08
2023-04-29T03:08:52.553Z,2.75
2023-04-29T03:11:20.417Z,2.80
2023-04-29T03:13:48.445Z,2.75
2023-04-29T03:16:17.011Z,2.20
2023-04-29T03:18:47.920Z,3.92
2023-04-29T03:21:15.869Z,5.22
2023-04-29T03:23:44.774Z,3.47
2023-04-29T03:26:18.986Z,3.40
2023-04-29T03:28:47.256Z,4.95
2023-04-29T03:31:16.473Z,6.55
2023-04-29T03:33:44.750Z,7.47
2023-04-29T03:36:14.282Z,10.20
2023-04-29T03:38:51.874Z,8.13
2023-04-29T03:41:20.046Z,7.38
2023-04-29T03:43:48.939Z,7.05
2023-04-29T03:46:17.124Z,9.23
2023-04-29T03:48:46.242Z,9.05
2023-04-29T03:51:16.219Z,9.40
2023-04-29T03:53:44.222Z,9.98
2023-04-29T03:56:12.849Z,10.77
2023-04-29T03:58:41.319Z,11.35
2023-04-29T04:01:09.519Z,13.32
2023-04-29T04:03:44.564Z,11.38
2023-04-29T04:06:12.657Z,11.82
2023-04-29T04:08:42.359Z,10.95
2023-04-29T04:11:15.543Z,11.75
2023-04-29T04:13:47.838Z,13.63
2023-04-29T04:16:16.309Z,13.50
2023-04-29T04:18:44.183Z,11.52
2023-04-29T04:21:13.417Z,13.40
2023-04-29T04:23:46.066Z,14.13
2023-04-29T04:26:17.077Z,15.50
2023-04-29T04:28:59.792Z,14.48
2023-04-29T04:31:36.933Z,15.25
2023-04-29T04:34:04.860Z,15.07
2023-04-29T04:36:34.274Z,17.08
2023-04-29T04:39:03.527Z,13.73
2023-04-29T04:41:33.140Z,14.95
2023-04-29T04:44:02.149Z,13.25
2023-04-29T04:46:36.863Z,13.23
2023-04-29T04:49:13.847Z,14.00
2023-04-29T04:51:49.442Z,15.57
2023-04-29T04:54:18.679Z,14.38
2023-04-29T04:56:48.323Z,14.45
2023-04-29T04:59:16.183Z,13.50
2023-04-29T05:01:44.619Z,12.32
2023-04-29T05:04:12.672Z,15.00
2023-04-29T05:06:40.817Z,12.20
2023-04-29T05:09:08.777Z,11.07
2023-04-29T05:11:38.394Z,13.10
2023-04-29T05:14:10.836Z,12.20
2023-04-29T05:16:38.734Z,12.85
2023-04-29T05:19:06.804Z,11.07
2023-04-29T05:21:38.370Z,11.60
2023-04-29T05:24:07.354Z,9.88
2023-04-29T05:26:35.377Z,10.88
2023-04-29T05:29:04.603Z,9.15
2023-04-29T05:31:39.558Z,8.90
2023-04-29T05:34:08.296Z,9.07
2023-04-29T05:36:37.265Z,9.07
2023-04-29T05:39:05.243Z,9.18
2023-04-29T05:41:33.157Z,10.38
2023-04-29T05:44:22.748Z,8.93
2023-04-29T05:46:51.679Z,8.68
2023-04-29T05:49:20.389Z,8.98
2023-04-29T05:51:48.232Z,9.15
2023-04-29T05:54:16.623Z,9.40
2023-04-29T05:56:46.123Z,7.45
2023-04-29T05:59:14.780Z,7.63
2023-04-29T06:01:48.528Z,7.47
2023-04-29T06:04:16.827Z,6.18
2023-04-29T06:07:05.046Z,7.85
2023-04-29T06:09:57.181Z,7.60
2023-04-29T06:12:26.586Z,5.97
2023-04-29T06:14:54.720Z,6.60
2023-04-29T06:17:24.195Z,6.32
2023-04-29T06:19:53.531Z,6.18
2023-04-29T06:22:21.850Z,6.80
2023-04-29T06:24:52.684Z,8.55
2023-04-29T06:27:28.217Z,6.78
2023-04-29T06:29:56.495Z,7.30
2023-04-29T06:32:25.718Z,7.38
2023-04-29T06:34:53.966Z,7.45
2023-04-29T06:40:29.090Z,6.97
2023-04-29T06:43:23.953Z,7.70
2023-04-29T06:46:12.387Z,7.32
2023-04-29T06:48:47.064Z,7.47
2023-04-29T06:51:16.092Z,6.95
2023-04-29T06:53:43.954Z,6.95
2023-04-29T06:56:14.589Z,7.85
2023-04-29T06:58:44.159Z,6.20
2023-04-29T07:01:12.115Z,7.32
2023-04-29T07:03:40.063Z,6.32
2023-04-29T07:06:09.650Z,7.38
2023-04-29T07:08:37.514Z,7.03
2023-04-29T07:11:05.457Z,7.55
2023-04-29T07:13:33.420Z,7.40
2023-04-29T07:16:01.318Z,7.55
2023-04-29T07:18:29.201Z,9.32
2023-04-29T07:21:02.304Z,7.40
2023-04-29T07:23:31.724Z,7.00
2023-04-29T07:25:59.696Z,6.57
2023-04-29T07:28:27.557Z,7.15
2023-04-29T07:30:55.434Z,7.53
2023-04-29T07:33:24.131Z,7.03
2023-04-29T07:35:52.411Z,7.63
2023-04-29T07:38:21.384Z,6.68
2023-04-29T07:40:50.587Z,6.20
2023-04-29T07:43:18.594Z,7.55
2023-04-29T07:45:46.470Z,6.53
2023-04-29T07:48:14.377Z,6.80
2023-04-29T07:50:42.770Z,6.18
2023-04-29T07:53:11.247Z,5.38
2023-04-29T07:55:39.238Z,5.10
2023-04-29T07:58:09.038Z,6.85
2023-04-29T08:00:36.970Z,6.18
2023-04-29T08:03:06.735Z,5.45
2023-04-29T08:05:35.070Z,5.68
2023-04-29T08:08:03.218Z,7.88
2023-04-29T08:10:31.178Z,8.80
2023-04-29T08:12:59.085Z,7.20
2023-04-29T08:15:28.573Z,7.18
2023-04-29T08:17:56.489Z,7.13
2023-04-29T08:20:24.363Z,8.20
2023-04-29T08:22:52.252Z,5.93
2023-04-29T08:25:20.305Z,6.70
2023-04-29T08:27:48.157Z,7.18
2023-04-29T08:30:16.204Z,6.00
2023-04-29T08:32:45.395Z,6.22
2023-04-29T08:35:13.199Z,6.18
2023-04-29T08:37:41.363Z,5.68
2023-04-29T08:40:10.351Z,6.10
2023-04-29T08:42:38.973Z,6.50
2023-04-29T08:45:07.345Z,4.97
2023-04-29T08:47:35.485Z,5.22
2023-04-29T08:50:06.486Z,4.18
2023-04-29T08:52:34.597Z,4.30
2023-04-29T08:55:03.297Z,4.00
2023-04-29T08:57:39.438Z,3.70
2023-04-29T09:00:10.130Z,4.47
2023-04-29T09:02:42.543Z,3.72
2023-04-29T09:05:12.135Z,3.83
2023-04-29T09:07:40.726Z,3.83
2023-04-29T09:10:09.552Z,5.30
2023-04-29T09:12:37.414Z,4.90
2023-04-29T09:15:05.714Z,5.45
2023-04-29T09:17:43.353Z,4.30
2023-04-29T09:20:30.949Z,5.80
2023-04-29T09:23:01.175Z,4.07
2023-04-29T09:25:29.614Z,5.25
2023-04-29T09:27:57.591Z,5.57
2023-04-29T09:30:26.674Z,5.57
2023-04-29T09:33:07.187Z,4.97
2023-04-29T09:35:37.150Z,5.05
2023-04-29T09:38:11.932Z,3.88
2023-04-29T09:40:56.737Z,3.85
2023-04-29T09:43:26.164Z,6.75
2023-04-29T09:45:54.475Z,3.85
2023-04-29T09:48:22.408Z,4.40
2023-04-29T09:51:03.168Z,2.95
2023-04-29T09:53:32.415Z,3.78
2023-04-29T09:56:01.762Z,2.92
2023-04-29T09:58:34.067Z,2.60
2023-04-29T10:01:03.368Z,2.92
2023-04-29T10:03:35.541Z,2.72
2023-04-29T10:06:06.542Z,2.88
2023-04-29T10:08:35.666Z,3.38
2023-04-29T10:11:05.768Z,4.03
2023-04-29T10:13:38.317Z,2.47
2023-04-29T10:16:16.551Z,3.83
2023-04-29T10:18:50.105Z,3.30
2023-04-29T10:21:22.338Z,4.57
2023-04-29T10:23:51.336Z,4.22
2023-04-29T10:26:20.518Z,4.35
2023-04-29T10:28:51.567Z,3.33
2023-04-29T10:31:22.727Z,3.42
2023-04-29T10:33:51.790Z,3.03
2023-04-29T10:36:22.518Z,3.80
2023-04-29T10:38:53.921Z,3.03
2023-04-29T10:41:24.699Z,2.95
2023-04-29T10:43:53.428Z,3.25
2023-04-29T10:46:23.672Z,3.67
2023-04-29T10:48:55.410Z,2.70
2023-04-29T10:51:33.176Z,3.35
2023-04-29T10:54:03.217Z,3.67
2023-04-29T10:56:44.890Z,2.63
2023-04-29T10:59:14.950Z,2.92
2023-04-29T11:01:50.977Z,2.72
2023-04-29T11:04:20.326Z,2.78
2023-04-29T11:06:54.363Z,3.10
2023-04-29T11:09:25.644Z,2.53
2023-04-29T11:12:03.018Z,2.80
2023-04-29T11:14:38.814Z,2.97
2023-04-29T11:17:10.330Z,3.03
2023-04-29T11:19:42.686Z,2.50
2023-04-29T11:22:25.857Z,2.53
2023-04-29T11:24:56.201Z,2.92
2023-04-29T11:27:28.807Z,2.55
2023-04-29T11:29:59.244Z,2.65
2023-04-29T11:32:28.966Z,4.70
2023-04-29T11:35:07.986Z,2.85
2023-04-29T11:37:38.382Z,3.40
2023-04-29T11:40:07.793Z,3.25
2023-04-29T11:42:36.388Z,3.42
2023-04-29T11:45:04.561Z,3.65
2023-04-29T11:47:32.671Z,3.53
2023-04-29T11:50:05.437Z,3.50
2023-04-29T11:52:34.151Z,2.90
2023-04-29T11:55:03.912Z,3.45
2023-04-29T11:57:32.091Z,4.35
2023-04-29T12:00:00.310Z,5.32
2023-04-29T12:02:31.450Z,3.70
2023-04-29T12:05:01.197Z,4.35
2023-04-29T12:07:29.496Z,4.72
2023-04-29T12:09:57.843Z,3.55
2023-04-29T12:12:28.387Z,3.35
2023-04-29T12:14:56.690Z,3.55
2023-04-29T12:17:25.665Z,3.15
2023-04-29T12:19:53.696Z,4.13
2023-04-29T12:22:21.667Z,2.90
2023-04-29T12:24:50.787Z,2.80
2023-04-29T12:27:19.138Z,2.85
2023-04-29T12:29:48.385Z,3.13
2023-04-29T12:32:18.867Z,2.72
2023-04-29T12:34:47.843Z,2.42
2023-04-29T12:37:16.415Z,3.28
2023-04-29T12:39:44.380Z,2.75
2023-04-29T12:42:16.850Z,2.40
2023-04-29T12:44:48.186Z,2.30
2023-04-29T12:47:17.538Z,3.25
2023-04-29T12:49:47.512Z,2.40
2023-04-29T12:52:15.811Z,2.50
2023-04-29T12:54:44.388Z,2.00
2023-04-29T12:57:12.862Z,2.35
2023-04-29T12:59:41.079Z,2.10
2023-04-29T13:02:10.728Z,3.30
2023-04-29T13:04:39.983Z,2.92
2023-04-29T13:07:08.248Z,5.03
2023-04-29T13:09:38.048Z,4.95
2023-04-29T13:12:09.236Z,5.35
2023-04-29T13:14:37.434Z,6.13
2023-04-29T13:17:06.074Z,4.43
2023-04-29T13:22:07.648Z,5.93
2023-04-29T13:24:36.653Z,4.13
2023-04-29T13:27:05.590Z,9.63
2023-04-29T13:29:33.554Z,4.78
2023-04-29T13:32:01.540Z,7.10
2023-04-29T13:34:29.555Z,4.63
2023-04-29T13:36:58.766Z,5.80
2023-04-29T13:39:27.082Z,5.32
2023-04-29T13:41:58.947Z,6.03
2023-04-29T13:44:33.233Z,6.28
2023-04-29T13:47:07.608Z,6.90
2023-04-29T13:50:11.895Z,6.47
2023-04-29T13:55:33.056Z,3.67
2023-04-29T14:00:37.827Z,5.93
2023-04-29T14:03:04.301Z,8.20
2023-04-29T14:05:32.322Z,7.15
2023-04-29T14:08:01.832Z,4.50
2023-04-29T14:10:29.697Z,4.72
2023-04-29T14:12:57.539Z,5.05
2023-04-29T14:15:25.502Z,4.93
2023-04-29T14:17:53.456Z,5.47
2023-04-29T14:20:21.606Z,8.77
2023-04-29T14:22:49.436Z,7.88
2023-04-29T14:25:18.719Z,10.85
2023-04-29T14:27:47.763Z,5.45
2023-04-29T14:30:15.772Z,5.07
2023-04-29T14:32:43.655Z,7.53
2023-04-29T14:35:11.660Z,6.05
2023-04-29T14:37:39.562Z,6.45
2023-04-29T14:40:09.303Z,5.90
2023-04-29T14:42:38.501Z,4.78
2023-04-29T14:45:07.923Z,7.32
2023-04-29T14:47:35.825Z,10.80
2023-04-29T14:50:04.170Z,5.45
2023-04-29T14:52:32.026Z,10.05
2023-04-29T14:54:59.953Z,6.78
2023-04-29T14:57:27.825Z,7.70
2023-04-29T14:59:57.038Z,9.43
2023-04-29T15:02:25.554Z,8.05
2023-04-29T15:04:53.657Z,7.55
2023-04-29T15:07:22.675Z,5.63
2023-04-29T15:09:50.843Z,5.78
2023-04-29T15:12:19.920Z,9.43
2023-04-29T15:14:47.800Z,4.85
2023-04-29T15:17:16.993Z,4.50
2023-04-29T15:19:44.820Z,4.97
2023-04-29T15:22:12.834Z,5.10
2023-04-29T15:24:40.839Z,7.78
2023-04-29T15:27:08.685Z,9.90
2023-04-29T15:29:37.538Z,6.57
2023-04-29T15:32:06.159Z,6.60
2023-04-29T15:34:35.524Z,9.48
2023-04-29T15:37:03.366Z,10.50
2023-04-29T15:39:31.200Z,11.07
2023-04-29T15:42:00.317Z,8.88
2023-04-29T15:44:28.283Z,6.40
2023-04-29T15:46:56.232Z,6.32
2023-04-29T15:49:24.624Z,6.80
2023-04-29T15:51:54.121Z,6.38
2023-04-29T15:54:23.050Z,6.60
2023-04-29T15:56:51.053Z,6.68
2023-04-29T15:59:18.918Z,7.30
2023-04-29T16:01:46.848Z,7.22
2023-04-29T16:04:14.806Z,8.15
2023-04-29T16:06:42.823Z,8.23
2023-04-29T16:09:12.403Z,7.00
2023-04-29T16:11:40.280Z,7.18
2023-04-29T16:14:08.208Z,7.65
2023-04-29T16:16:36.123Z,6.82
2023-04-29T16:19:04.047Z,10.20
2023-04-29T16:21:32.839Z,6.78
2023-04-29T16:24:00.705Z,11.20
2023-04-29T16:26:30.259Z,6.88
2023-04-29T16:28:58.381Z,8.98
2023-04-29T16:31:27.744Z,6.30
2023-04-29T16:33:57.002Z,7.38
2023-04-29T16:36:24.902Z,7.60
2023-04-29T16:38:54.255Z,6.00
2023-04-29T16:41:22.642Z,8.68
2023-04-29T16:43:51.841Z,6.05
2023-04-29T16:46:19.942Z,7.90
2023-04-29T16:48:50.834Z,6.25
2023-04-29T16:51:19.035Z,7.05
2023-04-29T16:53:46.894Z,7.45
2023-04-29T16:56:14.734Z,7.25
2023-04-29T16:58:42.576Z,7.80
2023-04-29T17:01:12.125Z,6.70
2023-04-29T17:03:40.511Z,6.43
2023-04-29T17:06:08.627Z,7.53
2023-04-29T17:08:36.663Z,6.28
2023-04-29T17:11:06.237Z,7.82
2023-04-29T17:13:34.089Z,5.72
2023-04-29T17:16:01.983Z,6.80
2023-04-29T17:18:31.253Z,5.97
2023-04-29T17:20:59.126Z,5.40
2023-04-29T17:23:27.444Z,6.68
2023-04-29T17:25:57.030Z,5.55
2023-04-29T17:28:25.191Z,5.18
2023-04-29T17:30:55.643Z,6.65
2023-04-29T17:33:32.235Z,4.65
2023-04-29T17:36:02.069Z,5.22
2023-04-29T17:38:30.220Z,5.57
2023-04-29T17:40:58.101Z,4.72
2023-04-29T17:43:26.568Z,5.53
2023-04-29T17:45:55.014Z,4.97
2023-04-29T17:48:22.966Z,5.43
2023-04-29T17:50:50.861Z,5.05
2023-04-29T17:53:20.046Z,5.72
2023-04-29T17:55:47.926Z,5.72
2023-04-29T17:58:15.787Z,6.18
2023-04-29T18:00:43.770Z,5.63
2023-04-29T18:03:11.877Z,5.30
2023-04-29T18:05:39.919Z,5.68
2023-04-29T18:08:07.729Z,6.15
2023-04-29T18:10:36.933Z,6.90
2023-04-29T18:13:04.951Z,5.53
2023-04-29T18:15:32.991Z,5.05
2023-04-29T18:18:00.880Z,4.85
2023-04-29T18:20:28.809Z,5.15
2023-04-29T18:22:56.648Z,5.18
2023-04-29T18:25:24.691Z,5.32
2023-04-29T18:28:07.771Z,4.78
2023-04-29T18:30:43.490Z,5.03
2023-04-29T18:33:11.402Z,6.82
2023-04-29T18:35:39.310Z,5.35
2023-04-29T18:38:07.198Z,6.72
2023-04-29T18:40:36.814Z,6.07
2023-04-29T18:43:06.013Z,5.18
2023-04-29T18:45:33.987Z,6.75
2023-04-29T18:48:05.533Z,5.80
2023-04-29T18:50:33.633Z,6.55
2023-04-29T18:53:01.780Z,6.38
2023-04-29T18:55:30.562Z,5.82
2023-04-29T18:57:58.444Z,5.63
2023-04-29T19:00:27.782Z,8.27
2023-04-29T19:02:56.348Z,7.93
2023-04-29T19:05:24.426Z,6.57
2023-04-29T19:07:52.245Z,9.77
2023-04-29T19:10:20.340Z,6.90
2023-04-29T19:12:48.205Z,5.53
2023-04-29T19:15:17.593Z,11.73
2023-04-29T19:17:46.800Z,9.95
2023-04-29T19:20:14.671Z,5.82
2023-04-29T19:22:42.582Z,6.20
2023-04-29T19:25:11.094Z,6.07
2023-04-29T19:27:40.688Z,6.35
2023-04-29T19:30:09.567Z,6.05
2023-04-29T19:32:37.462Z,5.40
2023-04-29T19:35:07.541Z,9.52
2023-04-29T19:37:35.457Z,5.47
2023-04-29T19:40:03.984Z,7.55
2023-04-29T19:42:31.876Z,7.38
2023-04-29T19:44:59.806Z,6.82
2023-04-29T19:47:27.715Z,6.50
2023-04-29T19:49:55.892Z,6.85
2023-04-29T19:52:25.651Z,7.47
2023-04-29T19:54:53.573Z,7.28
2023-04-29T19:57:21.461Z,7.07
2023-04-29T19:59:49.306Z,7.40
2023-04-29T20:02:17.208Z,8.18
2023-04-29T20:04:45.065Z,8.90
2023-04-29T20:07:13.386Z,7.85
2023-04-29T20:09:44.923Z,8.35
2023-04-29T20:12:12.795Z,7.32
2023-04-29T20:14:41.187Z,8.77
2023-04-29T20:17:10.693Z,8.43
2023-04-29T20:19:38.564Z,8.52
2023-04-29T20:22:06.429Z,6.95
2023-04-29T20:24:34.321Z,8.63
2023-04-29T20:27:04.388Z,6.40
2023-04-29T20:29:32.574Z,8.02
2023-04-29T20:32:00.563Z,8.05
2023-04-29T20:34:28.388Z,7.38
2023-04-29T20:36:56.256Z,7.70
2023-04-29T20:39:24.979Z,6.97
2023-04-29T20:41:54.284Z,10.75
2023-04-29T20:44:23.508Z,7.75
2023-04-29T20:46:53.006Z,8.63
2023-04-29T20:49:21.010Z,9.85
2023-04-29T20:51:49.339Z,8.40
2023-04-29T20:54:17.274Z,8.68
2023-04-29T20:56:45.121Z,9.07
2023-04-29T20:59:12.947Z,8.40
2023-04-29T21:01:42.170Z,11.18
2023-04-29T21:04:10.142Z,7.25
2023-04-29T21:06:38.278Z,8.05
2023-04-29T21:09:06.246Z,8.60
2023-04-29T21:11:34.136Z,7.85
2023-04-29T21:14:02.048Z,9.18
2023-04-29T21:16:29.894Z,10.32
2023-04-29T21:18:59.132Z,7.95
2023-04-29T21:21:27.037Z,7.70
2023-04-29T21:23:55.072Z,9.55
2023-04-29T21:26:22.922Z,9.50
2023-04-29T21:28:51.247Z,8.23
2023-04-29T21:31:19.106Z,11.50
2023-04-29T21:33:47.287Z,9.35
2023-04-29T21:36:16.510Z,11.05
2023-04-29T21:38:44.445Z,8.70
2023-04-29T21:41:19.178Z,8.85
2023-04-29T21:43:47.162Z,8.93
2023-04-29T21:46:15.154Z,8.18
2023-04-29T21:48:43.444Z,8.48
2023-04-29T21:51:11.335Z,8.20
2023-04-29T21:53:41.479Z,11.43
2023-04-29T21:56:09.372Z,8.65
2023-04-29T21:58:37.553Z,9.43
